sensor_id;sensor_type;location;lat;lon;timestamp;P1;durP1;ratioP1;P2;durP2;ratioP2
30635;SDS011;17400;52.392;9.750;2023-08-30T00:00:40;3.50;;;2.40;;
30635;SDS011;17400;52.392;9.750;2023-08-30T00:03:08;4.35;;;2.28;;
30635;SDS011;17400;52.392;9.750;2023-08-30T00:05:39;3.40;;;2.30;;
30635;SDS011;17400;52.392;9.750;2023-08-30T00:08:08;3.17;;;2.00;;
30635;SDS011;17400;52.392;9.750;2023-08-30T00:10:37;4.03;;;2.60;;
30635;SDS011;17400;52.392;9.750;2023-08-30T00:13:05;4.63;;;2.53;;
30635;SDS011;17400;52.392;9.750;2023-08-30T00:15:32;3.03;;;1.98;;
30635;SDS011;17400;52.392;9.750;2023-08-30T00:18:00;4.03;;;2.10;;
30635;SDS011;17400;52.392;9.750;2023-08-30T00:20:28;3.05;;;2.28;;
30635;SDS011;17400;52.392;9.750;2023-08-30T00:22:57;4.18;;;2.40;;
30635;SDS011;17400;52.392;9.750;2023-08-30T00:25:25;3.38;;;1.83;;
30635;SDS011;17400;52.392;9.750;2023-08-30T00:27:53;3.40;;;2.10;;
30635;SDS011;17400;52.392;9.750;2023-08-30T00:30:21;3.08;;;1.95;;
30635;SDS011;17400;52.392;9.750;2023-08-30T00:32:49;3.40;;;2.28;;
30635;SDS011;17400;52.392;9.750;2023-08-30T00:35:17;4.15;;;2.35;;
30635;SDS011;17400;52.392;9.750;2023-08-30T00:37:45;2.97;;;2.20;;
30635;SDS011;17400;52.392;9.750;2023-08-30T00:40:14;3.25;;;2.08;;
30635;SDS011;17400;52.392;9.750;2023-08-30T00:42:41;2.67;;;2.03;;
30635;SDS011;17400;52.392;9.750;2023-08-30T00:45:09;2.53;;;1.77;;
30635;SDS011;17400;52.392;9.750;2023-08-30T00:47:37;4.75;;;2.30;;
30635;SDS011;17400;52.392;9.750;2023-08-30T00:50:05;2.58;;;1.67;;
30635;SDS011;17400;52.392;9.750;2023-08-30T00:52:34;3.00;;;1.75;;
30635;SDS011;17400;52.392;9.750;2023-08-30T00:55:02;3.53;;;2.17;;
30635;SDS011;17400;52.392;9.750;2023-08-30T00:57:31;2.85;;;2.00;;
30635;SDS011;17400;52.392;9.750;2023-08-30T00:59:59;4.80;;;2.08;;
30635;SDS011;17400;52.392;9.750;2023-08-30T01:02:27;3.75;;;2.40;;
30635;SDS011;17400;52.392;9.750;2023-08-30T01:04:55;2.97;;;2.10;;
30635;SDS011;17400;52.392;9.750;2023-08-30T01:07:23;2.58;;;2.03;;
30635;SDS011;17400;52.392;9.750;2023-08-30T01:09:51;3.42;;;2.13;;
30635;SDS011;17400;52.392;9.750;2023-08-30T01:12:20;4.43;;;2.28;;
30635;SDS011;17400;52.392;9.750;2023-08-30T01:14:53;3.30;;;2.35;;
30635;SDS011;17400;52.392;9.750;2023-08-30T01:17:25;4.07;;;2.88;;
30635;SDS011;17400;52.392;9.750;2023-08-30T01:19:59;3.92;;;2.72;;
30635;SDS011;17400;52.392;9.750;2023-08-30T01:22:38;2.72;;;1.80;;
30635;SDS011;17400;52.392;9.750;2023-08-30T01:25:19;3.47;;;2.40;;
30635;SDS011;17400;52.392;9.750;2023-08-30T01:27:59;4.15;;;2.35;;
30635;SDS011;17400;52.392;9.750;2023-08-30T01:30:29;2.67;;;1.98;;
30635;SDS011;17400;52.392;9.750;2023-08-30T01:32:59;4.47;;;2.20;;
30635;SDS011;17400;52.392;9.750;2023-08-30T01:35:29;3.92;;;2.38;;
30635;SDS011;17400;52.392;9.750;2023-08-30T01:37:59;3.33;;;1.80;;
30635;SDS011;17400;52.392;9.750;2023-08-30T01:40:28;3.55;;;2.28;;
30635;SDS011;17400;52.392;9.750;2023-08-30T01:42:58;3.20;;;1.83;;
30635;SDS011;17400;52.392;9.750;2023-08-30T01:45:28;3.42;;;2.13;;
30635;SDS011;17400;52.392;9.750;2023-08-30T01:47:56;3.35;;;2.13;;
30635;SDS011;17400;52.392;9.750;2023-08-30T01:50:25;3.22;;;2.22;;
30635;SDS011;17400;52.392;9.750;2023-08-30T01:52:54;3.22;;;2.20;;
30635;SDS011;17400;52.392;9.750;2023-08-30T01:55:23;3.47;;;2.38;;
30635;SDS011;17400;52.392;9.750;2023-08-30T01:57:54;3.53;;;1.90;;
30635;SDS011;17400;52.392;9.750;2023-08-30T02:00:23;2.85;;;2.00;;
30635;SDS011;17400;52.392;9.750;2023-08-30T02:02:51;4.10;;;2.78;;
30635;SDS011;17400;52.392;9.750;2023-08-30T02:05:18;3.67;;;2.22;;
30635;SDS011;17400;52.392;9.750;2023-08-30T02:07:48;3.53;;;1.88;;
30635;SDS011;17400;52.392;9.750;2023-08-30T02:10:23;3.15;;;2.30;;
30635;SDS011;17400;52.392;9.750;2023-08-30T02:12:55;3.78;;;2.42;;
30635;SDS011;17400;52.392;9.750;2023-08-30T02:15:26;3.63;;;2.15;;
30635;SDS011;17400;52.392;9.750;2023-08-30T02:17:55;2.47;;;1.77;;
30635;SDS011;17400;52.392;9.750;2023-08-30T02:20:23;2.97;;;1.95;;
30635;SDS011;17400;52.392;9.750;2023-08-30T02:22:51;4.13;;;2.25;;
30635;SDS011;17400;52.392;9.750;2023-08-30T02:25:19;2.83;;;2.05;;
30635;SDS011;17400;52.392;9.750;2023-08-30T02:27:50;2.78;;;1.85;;
30635;SDS011;17400;52.392;9.750;2023-08-30T02:30:18;2.70;;;2.22;;
30635;SDS011;17400;52.392;9.750;2023-08-30T02:32:47;2.63;;;1.98;;
30635;SDS011;17400;52.392;9.750;2023-08-30T02:35:15;4.30;;;2.20;;
30635;SDS011;17400;52.392;9.750;2023-08-30T02:37:43;2.80;;;1.90;;
30635;SDS011;17400;52.392;9.750;2023-08-30T02:40:12;3.20;;;1.70;;
30635;SDS011;17400;52.392;9.750;2023-08-30T02:42:39;2.92;;;2.00;;
30635;SDS011;17400;52.392;9.750;2023-08-30T02:45:08;3.35;;;2.15;;
30635;SDS011;17400;52.392;9.750;2023-08-30T02:47:36;3.95;;;2.33;;
30635;SDS011;17400;52.392;9.750;2023-08-30T02:50:06;3.42;;;1.83;;
30635;SDS011;17400;52.392;9.750;2023-08-30T02:52:34;2.92;;;1.83;;
30635;SDS011;17400;52.392;9.750;2023-08-30T02:55:02;3.25;;;2.08;;
30635;SDS011;17400;52.392;9.750;2023-08-30T02:57:30;3.35;;;2.10;;
30635;SDS011;17400;52.392;9.750;2023-08-30T02:59:58;3.40;;;2.13;;
30635;SDS011;17400;52.392;9.750;2023-08-30T03:02:25;3.58;;;2.20;;
30635;SDS011;17400;52.392;9.750;2023-08-30T03:04:53;3.20;;;1.75;;
30635;SDS011;17400;52.392;9.750;2023-08-30T03:07:22;3.13;;;1.98;;
30635;SDS011;17400;52.392;9.750;2023-08-30T03:09:51;3.58;;;2.03;;
30635;SDS011;17400;52.392;9.750;2023-08-30T03:12:19;2.13;;;1.70;;
30635;SDS011;17400;52.392;9.750;2023-08-30T03:14:47;2.40;;;1.60;;
30635;SDS011;17400;52.392;9.750;2023-08-30T03:17:16;2.35;;;1.60;;
30635;SDS011;17400;52.392;9.750;2023-08-30T03:19:44;2.90;;;1.98;;
30635;SDS011;17400;52.392;9.750;2023-08-30T03:22:12;2.25;;;1.58;;
30635;SDS011;17400;52.392;9.750;2023-08-30T03:24:41;2.67;;;1.85;;
30635;SDS011;17400;52.392;9.750;2023-08-30T03:27:09;2.58;;;2.00;;
30635;SDS011;17400;52.392;9.750;2023-08-30T03:29:36;2.50;;;1.90;;
30635;SDS011;17400;52.392;9.750;2023-08-30T03:32:04;2.83;;;2.03;;
30635;SDS011;17400;52.392;9.750;2023-08-30T03:34:33;2.58;;;1.80;;
30635;SDS011;17400;52.392;9.750;2023-08-30T03:37:00;2.78;;;1.85;;
30635;SDS011;17400;52.392;9.750;2023-08-30T03:39:28;3.53;;;2.30;;
30635;SDS011;17400;52.392;9.750;2023-08-30T03:41:57;1.83;;;1.60;;
30635;SDS011;17400;52.392;9.750;2023-08-30T03:44:25;2.80;;;1.92;;
30635;SDS011;17400;52.392;9.750;2023-08-30T03:46:53;2.08;;;1.85;;
30635;SDS011;17400;52.392;9.750;2023-08-30T03:49:22;3.05;;;1.90;;
30635;SDS011;17400;52.392;9.750;2023-08-30T03:51:50;2.90;;;1.98;;
30635;SDS011;17400;52.392;9.750;2023-08-30T03:54:18;3.28;;;1.73;;
30635;SDS011;17400;52.392;9.750;2023-08-30T03:56:45;2.97;;;1.73;;
30635;SDS011;17400;52.392;9.750;2023-08-30T03:59:14;2.85;;;2.10;;
30635;SDS011;17400;52.392;9.750;2023-08-30T04:01:43;4.03;;;1.98;;
30635;SDS011;17400;52.392;9.750;2023-08-30T04:04:11;3.03;;;2.33;;
30635;SDS011;17400;52.392;9.750;2023-08-30T04:06:39;3.45;;;2.30;;
30635;SDS011;17400;52.392;9.750;2023-08-30T04:09:07;4.05;;;2.55;;
30635;SDS011;17400;52.392;9.750;2023-08-30T04:11:36;4.35;;;2.80;;
30635;SDS011;17400;52.392;9.750;2023-08-30T04:14:03;4.50;;;2.80;;
30635;SDS011;17400;52.392;9.750;2023-08-30T04:16:32;3.78;;;2.17;;
30635;SDS011;17400;52.392;9.750;2023-08-30T04:19:00;3.97;;;2.22;;
30635;SDS011;17400;52.392;9.750;2023-08-30T04:21:28;13.40;;;5.90;;
30635;SDS011;17400;52.392;9.750;2023-08-30T04:23:56;4.05;;;2.85;;
30635;SDS011;17400;52.392;9.750;2023-08-30T04:26:24;4.45;;;2.80;;
30635;SDS011;17400;52.392;9.750;2023-08-30T04:28:51;3.58;;;2.47;;
30635;SDS011;17400;52.392;9.750;2023-08-30T04:31:19;3.45;;;2.22;;
30635;SDS011;17400;52.392;9.750;2023-08-30T04:33:49;3.35;;;2.20;;
30635;SDS011;17400;52.392;9.750;2023-08-30T04:36:18;3.90;;;2.17;;
30635;SDS011;17400;52.392;9.750;2023-08-30T04:38:46;4.55;;;2.95;;
30635;SDS011;17400;52.392;9.750;2023-08-30T04:41:28;3.17;;;2.15;;
30635;SDS011;17400;52.392;9.750;2023-08-30T04:43:56;3.65;;;2.38;;
30635;SDS011;17400;52.392;9.750;2023-08-30T04:46:24;4.00;;;2.60;;
30635;SDS011;17400;52.392;9.750;2023-08-30T04:48:53;2.78;;;1.90;;
30635;SDS011;17400;52.392;9.750;2023-08-30T04:51:20;4.30;;;2.67;;
30635;SDS011;17400;52.392;9.750;2023-08-30T04:53:48;3.75;;;2.65;;
30635;SDS011;17400;52.392;9.750;2023-08-30T04:56:16;4.35;;;2.60;;
30635;SDS011;17400;52.392;9.750;2023-08-30T04:58:44;3.13;;;2.17;;
30635;SDS011;17400;52.392;9.750;2023-08-30T05:01:12;3.45;;;2.58;;
30635;SDS011;17400;52.392;9.750;2023-08-30T05:03:41;4.05;;;2.35;;
30635;SDS011;17400;52.392;9.750;2023-08-30T05:06:10;3.83;;;2.25;;
30635;SDS011;17400;52.392;9.750;2023-08-30T05:08:42;4.95;;;2.17;;
30635;SDS011;17400;52.392;9.750;2023-08-30T05:11:10;8.15;;;2.60;;
30635;SDS011;17400;52.392;9.750;2023-08-30T05:13:38;3.92;;;2.65;;
30635;SDS011;17400;52.392;9.750;2023-08-30T05:16:06;4.07;;;2.28;;
30635;SDS011;17400;52.392;9.750;2023-08-30T05:18:33;3.00;;;2.28;;
30635;SDS011;17400;52.392;9.750;2023-08-30T05:21:01;4.85;;;2.70;;
30635;SDS011;17400;52.392;9.750;2023-08-30T05:23:31;3.33;;;2.38;;
30635;SDS011;17400;52.392;9.750;2023-08-30T05:25:59;4.13;;;2.15;;
30635;SDS011;17400;52.392;9.750;2023-08-30T05:28:27;3.33;;;2.25;;
30635;SDS011;17400;52.392;9.750;2023-08-30T05:30:54;5.03;;;2.33;;
30635;SDS011;17400;52.392;9.750;2023-08-30T05:33:22;4.32;;;2.55;;
30635;SDS011;17400;52.392;9.750;2023-08-30T05:35:50;3.65;;;2.00;;
30635;SDS011;17400;52.392;9.750;2023-08-30T05:38:18;3.10;;;2.25;;
30635;SDS011;17400;52.392;9.750;2023-08-30T05:40:47;3.85;;;2.20;;
30635;SDS011;17400;52.392;9.750;2023-08-30T05:43:15;3.95;;;2.35;;
30635;SDS011;17400;52.392;9.750;2023-08-30T05:45:44;5.82;;;2.63;;
30635;SDS011;17400;52.392;9.750;2023-08-30T05:48:12;4.30;;;3.03;;
30635;SDS011;17400;52.392;9.750;2023-08-30T05:50:40;2.45;;;1.90;;
30635;SDS011;17400;52.392;9.750;2023-08-30T05:53:08;3.92;;;2.20;;
30635;SDS011;17400;52.392;9.750;2023-08-30T05:55:36;2.65;;;2.05;;
30635;SDS011;17400;52.392;9.750;2023-08-30T05:58:05;4.07;;;2.63;;
30635;SDS011;17400;52.392;9.750;2023-08-30T06:00:33;3.75;;;2.35;;
30635;SDS011;17400;52.392;9.750;2023-08-30T06:03:01;3.72;;;3.08;;
30635;SDS011;17400;52.392;9.750;2023-08-30T06:05:29;4.40;;;2.63;;
30635;SDS011;17400;52.392;9.750;2023-08-30T06:07:57;4.07;;;2.70;;
30635;SDS011;17400;52.392;9.750;2023-08-30T06:10:25;2.85;;;2.05;;
30635;SDS011;17400;52.392;9.750;2023-08-30T06:12:52;3.47;;;2.38;;
30635;SDS011;17400;52.392;9.750;2023-08-30T06:15:21;3.55;;;2.72;;
30635;SDS011;17400;52.392;9.750;2023-08-30T06:17:49;3.30;;;2.25;;
30635;SDS011;17400;52.392;9.750;2023-08-30T06:20:17;5.20;;;3.50;;
30635;SDS011;17400;52.392;9.750;2023-08-30T06:22:45;3.83;;;2.58;;
30635;SDS011;17400;52.392;9.750;2023-08-30T06:25:13;5.22;;;2.50;;
30635;SDS011;17400;52.392;9.750;2023-08-30T06:27:41;3.97;;;2.60;;
30635;SDS011;17400;52.392;9.750;2023-08-30T06:30:10;4.75;;;2.60;;
30635;SDS011;17400;52.392;9.750;2023-08-30T06:32:40;3.28;;;2.60;;
30635;SDS011;17400;52.392;9.750;2023-08-30T06:35:08;3.72;;;2.80;;
30635;SDS011;17400;52.392;9.750;2023-08-30T06:37:36;4.25;;;2.80;;
30635;SDS011;17400;52.392;9.750;2023-08-30T06:40:04;4.38;;;2.97;;
30635;SDS011;17400;52.392;9.750;2023-08-30T06:42:33;3.47;;;2.50;;
30635;SDS011;17400;52.392;9.750;2023-08-30T06:45:01;4.55;;;2.58;;
30635;SDS011;17400;52.392;9.750;2023-08-30T06:47:28;3.35;;;2.63;;
30635;SDS011;17400;52.392;9.750;2023-08-30T06:49:58;4.95;;;2.55;;
30635;SDS011;17400;52.392;9.750;2023-08-30T06:52:26;5.60;;;2.65;;
30635;SDS011;17400;52.392;9.750;2023-08-30T06:54:54;4.15;;;2.33;;
30635;SDS011;17400;52.392;9.750;2023-08-30T06:57:22;4.15;;;2.97;;
30635;SDS011;17400;52.392;9.750;2023-08-30T06:59:50;4.57;;;3.25;;
30635;SDS011;17400;52.392;9.750;2023-08-30T07:02:18;4.47;;;3.08;;
30635;SDS011;17400;52.392;9.750;2023-08-30T07:04:46;4.82;;;2.92;;
30635;SDS011;17400;52.392;9.750;2023-08-30T07:07:15;5.35;;;3.05;;
30635;SDS011;17400;52.392;9.750;2023-08-30T07:09:43;4.75;;;2.92;;
30635;SDS011;17400;52.392;9.750;2023-08-30T07:12:11;6.07;;;3.63;;
30635;SDS011;17400;52.392;9.750;2023-08-30T07:14:38;4.55;;;3.05;;
30635;SDS011;17400;52.392;9.750;2023-08-30T07:17:06;4.63;;;2.67;;
30635;SDS011;17400;52.392;9.750;2023-08-30T07:19:34;4.53;;;2.90;;
30635;SDS011;17400;52.392;9.750;2023-08-30T07:22:02;4.60;;;3.50;;
30635;SDS011;17400;52.392;9.750;2023-08-30T07:24:32;7.03;;;3.40;;
30635;SDS011;17400;52.392;9.750;2023-08-30T07:26:59;4.05;;;2.95;;
30635;SDS011;17400;52.392;9.750;2023-08-30T07:29:27;4.28;;;2.92;;
30635;SDS011;17400;52.392;9.750;2023-08-30T07:31:55;6.07;;;3.85;;
30635;SDS011;17400;52.392;9.750;2023-08-30T07:34:23;6.65;;;4.22;;
30635;SDS011;17400;52.392;9.750;2023-08-30T07:36:53;5.32;;;3.47;;
30635;SDS011;17400;52.392;9.750;2023-08-30T07:39:21;3.97;;;2.65;;
30635;SDS011;17400;52.392;9.750;2023-08-30T07:41:51;6.25;;;2.60;;
30635;SDS011;17400;52.392;9.750;2023-08-30T07:44:18;6.03;;;2.83;;
30635;SDS011;17400;52.392;9.750;2023-08-30T07:46:47;5.22;;;3.72;;
30635;SDS011;17400;52.392;9.750;2023-08-30T07:49:14;5.90;;;3.00;;
30635;SDS011;17400;52.392;9.750;2023-08-30T07:51:42;6.47;;;3.53;;
30635;SDS011;17400;52.392;9.750;2023-08-30T07:54:11;7.05;;;4.20;;
30635;SDS011;17400;52.392;9.750;2023-08-30T07:56:38;7.30;;;3.58;;
30635;SDS011;17400;52.392;9.750;2023-08-30T07:59:08;6.35;;;3.72;;
30635;SDS011;17400;52.392;9.750;2023-08-30T08:01:36;6.55;;;3.92;;
30635;SDS011;17400;52.392;9.750;2023-08-30T08:04:04;6.25;;;3.50;;
30635;SDS011;17400;52.392;9.750;2023-08-30T08:06:33;5.72;;;3.88;;
30635;SDS011;17400;52.392;9.750;2023-08-30T08:09:03;5.25;;;3.35;;
30635;SDS011;17400;52.392;9.750;2023-08-30T08:11:32;5.93;;;3.53;;
30635;SDS011;17400;52.392;9.750;2023-08-30T08:14:02;6.93;;;3.72;;
30635;SDS011;17400;52.392;9.750;2023-08-30T08:16:31;6.57;;;3.38;;
30635;SDS011;17400;52.392;9.750;2023-08-30T08:18:59;4.75;;;2.95;;
30635;SDS011;17400;52.392;9.750;2023-08-30T08:21:28;5.72;;;3.72;;
30635;SDS011;17400;52.392;9.750;2023-08-30T08:23:56;5.28;;;3.05;;
30635;SDS011;17400;52.392;9.750;2023-08-30T08:26:23;7.00;;;3.97;;
30635;SDS011;17400;52.392;9.750;2023-08-30T08:28:51;5.93;;;3.22;;
30635;SDS011;17400;52.392;9.750;2023-08-30T08:31:21;6.57;;;3.70;;
30635;SDS011;17400;52.392;9.750;2023-08-30T08:33:51;6.55;;;;;
30635;SDS011;17400;52.392;9.750;2023-08-30T08:36:36;6.70;;;3.70;;
30635;SDS011;17400;52.392;9.750;2023-08-30T08:39:04;7.72;;;4.07;;
30635;SDS011;17400;52.392;9.750;2023-08-30T08:41:35;4.43;;;3.25;;
30635;SDS011;17400;52.392;9.750;2023-08-30T08:44:05;5.90;;;3.55;;
30635;SDS011;17400;52.392;9.750;2023-08-30T08:46:35;5.78;;;3.03;;
30635;SDS011;17400;52.392;9.750;2023-08-30T08:49:08;6.78;;;3.88;;
30635;SDS011;17400;52.392;9.750;2023-08-30T08:51:38;4.88;;;3.33;;
30635;SDS011;17400;52.392;9.750;2023-08-30T08:54:07;5.00;;;3.25;;
30635;SDS011;17400;52.392;9.750;2023-08-30T08:56:37;4.03;;;2.63;;
30635;SDS011;17400;52.392;9.750;2023-08-30T08:59:05;7.50;;;3.97;;
30635;SDS011;17400;52.392;9.750;2023-08-30T09:01:35;7.50;;;3.85;;
30635;SDS011;17400;52.392;9.750;2023-08-30T09:04:08;6.78;;;3.42;;
30635;SDS011;17400;52.392;9.750;2023-08-30T09:06:37;6.97;;;3.28;;
30635;SDS011;17400;52.392;9.750;2023-08-30T09:09:07;8.50;;;5.15;;
30635;SDS011;17400;52.392;9.750;2023-08-30T09:11:35;7.55;;;3.70;;
30635;SDS011;17400;52.392;9.750;2023-08-30T09:14:16;6.55;;;3.65;;
30635;SDS011;17400;52.392;9.750;2023-08-30T09:16:53;7.65;;;4.13;;
30635;SDS011;17400;52.392;9.750;2023-08-30T09:19:23;5.43;;;3.10;;
30635;SDS011;17400;52.392;9.750;2023-08-30T09:21:51;6.15;;;3.50;;
30635;SDS011;17400;52.392;9.750;2023-08-30T09:24:19;5.30;;;3.40;;
30635;SDS011;17400;52.392;9.750;2023-08-30T09:26:48;7.32;;;3.50;;
30635;SDS011;17400;52.392;9.750;2023-08-30T09:29:17;9.13;;;4.13;;
30635;SDS011;17400;52.392;9.750;2023-08-30T09:31:46;5.72;;;3.60;;
30635;SDS011;17400;52.392;9.750;2023-08-30T09:34:14;7.13;;;3.97;;
30635;SDS011;17400;52.392;9.750;2023-08-30T09:36:43;7.72;;;4.20;;
30635;SDS011;17400;52.392;9.750;2023-08-30T09:39:13;8.63;;;4.28;;
30635;SDS011;17400;52.392;9.750;2023-08-30T09:41:42;7.03;;;3.92;;
30635;SDS011;17400;52.392;9.750;2023-08-30T09:44:10;7.30;;;3.85;;
30635;SDS011;17400;52.392;9.750;2023-08-30T09:46:41;9.13;;;3.97;;
30635;SDS011;17400;52.392;9.750;2023-08-30T09:49:18;8.35;;;4.10;;
30635;SDS011;17400;52.392;9.750;2023-08-30T09:51:48;6.65;;;4.07;;
30635;SDS011;17400;52.392;9.750;2023-08-30T09:54:19;5.70;;;3.80;;
30635;SDS011;17400;52.392;9.750;2023-08-30T09:57:04;4.80;;;2.88;;
30635;SDS011;17400;52.392;9.750;2023-08-30T09:59:33;8.13;;;3.72;;
30635;SDS011;17400;52.392;9.750;2023-08-30T10:02:01;7.97;;;4.07;;
30635;SDS011;17400;52.392;9.750;2023-08-30T10:04:31;9.10;;;5.28;;
30635;SDS011;17400;52.392;9.750;2023-08-30T10:07:01;6.70;;;3.92;;
30635;SDS011;17400;52.392;9.750;2023-08-30T10:09:30;6.45;;;3.78;;
30635;SDS011;17400;52.392;9.750;2023-08-30T10:12:00;6.88;;;4.50;;
30635;SDS011;17400;52.392;9.750;2023-08-30T10:14:30;7.18;;;4.35;;
30635;SDS011;17400;52.392;9.750;2023-08-30T10:16:59;5.82;;;3.65;;
30635;SDS011;17400;52.392;9.750;2023-08-30T10:19:29;9.43;;;5.40;;
30635;SDS011;17400;52.392;9.750;2023-08-30T10:22:00;9.27;;;4.97;;
30635;SDS011;17400;52.392;9.750;2023-08-30T10:24:32;11.73;;;4.75;;
30635;SDS011;17400;52.392;9.750;2023-08-30T10:27:28;5.13;;;3.40;;
30635;SDS011;17400;52.392;9.750;2023-08-30T10:29:58;10.02;;;4.57;;
30635;SDS011;17400;52.392;9.750;2023-08-30T10:32:29;5.97;;;3.63;;
30635;SDS011;17400;52.392;9.750;2023-08-30T10:35:00;8.88;;;4.82;;
30635;SDS011;17400;52.392;9.750;2023-08-30T10:37:30;8.00;;;5.25;;
30635;SDS011;17400;52.392;9.750;2023-08-30T10:40:03;7.65;;;4.13;;
30635;SDS011;17400;52.392;9.750;2023-08-30T10:42:32;6.68;;;3.55;;
30635;SDS011;17400;52.392;9.750;2023-08-30T10:45:01;7.60;;;4.00;;
30635;SDS011;17400;52.392;9.750;2023-08-30T10:47:34;6.35;;;3.70;;
30635;SDS011;17400;52.392;9.750;2023-08-30T10:50:05;11.40;;;4.85;;
30635;SDS011;17400;52.392;9.750;2023-08-30T10:52:36;7.97;;;4.07;;
30635;SDS011;17400;52.392;9.750;2023-08-30T10:55:04;6.72;;;3.85;;
30635;SDS011;17400;52.392;9.750;2023-08-30T10:57:33;7.10;;;4.18;;
30635;SDS011;17400;52.392;9.750;2023-08-30T11:00:04;9.45;;;5.10;;
30635;SDS011;17400;52.392;9.750;2023-08-30T11:02:35;6.88;;;4.68;;
30635;SDS011;17400;52.392;9.750;2023-08-30T11:05:05;6.85;;;4.28;;
30635;SDS011;17400;52.392;9.750;2023-08-30T11:07:34;5.00;;;3.47;;
30635;SDS011;17400;52.392;9.750;2023-08-30T11:10:05;7.47;;;4.43;;
30635;SDS011;17400;52.392;9.750;2023-08-30T11:12:33;8.70;;;4.88;;
30635;SDS011;17400;52.392;9.750;2023-08-30T11:15:02;7.40;;;4.05;;
30635;SDS011;17400;52.392;9.750;2023-08-30T11:17:31;6.65;;;4.28;;
30635;SDS011;17400;52.392;9.750;2023-08-30T11:20:05;6.60;;;4.20;;
30635;SDS011;17400;52.392;9.750;2023-08-30T11:22:34;6.53;;;4.30;;
30635;SDS011;17400;52.392;9.750;2023-08-30T11:25:05;7.82;;;4.25;;
30635;SDS011;17400;52.392;9.750;2023-08-30T11:27:35;8.05;;;4.07;;
30635;SDS011;17400;52.392;9.750;2023-08-30T11:30:03;7.22;;;3.85;;
30635;SDS011;17400;52.392;9.750;2023-08-30T11:32:32;6.65;;;3.88;;
30635;SDS011;17400;52.392;9.750;2023-08-30T11:35:01;5.85;;;4.18;;
30635;SDS011;17400;52.392;9.750;2023-08-30T11:37:29;6.82;;;3.83;;
30635;SDS011;17400;52.392;9.750;2023-08-30T11:40:01;7.20;;;4.47;;
30635;SDS011;17400;52.392;9.750;2023-08-30T11:42:31;9.60;;;4.80;;
30635;SDS011;17400;52.392;9.750;2023-08-30T11:44:59;5.30;;;3.03;;
30635;SDS011;17400;52.392;9.750;2023-08-30T11:47:28;5.70;;;3.47;;
30635;SDS011;17400;52.392;9.750;2023-08-30T11:49:56;5.78;;;3.30;;
30635;SDS011;17400;52.392;9.750;2023-08-30T11:52:25;3.78;;;2.38;;
30635;SDS011;17400;52.392;9.750;2023-08-30T11:54:53;4.30;;;2.55;;
30635;SDS011;17400;52.392;9.750;2023-08-30T11:57:22;5.32;;;2.63;;
30635;SDS011;17400;52.392;9.750;2023-08-30T11:59:53;4.13;;;2.70;;
30635;SDS011;17400;52.392;9.750;2023-08-30T12:02:21;3.55;;;2.17;;
30635;SDS011;17400;52.392;9.750;2023-08-30T12:04:50;4.07;;;2.17;;
30635;SDS011;17400;52.392;9.750;2023-08-30T12:07:23;4.55;;;2.58;;
30635;SDS011;17400;52.392;9.750;2023-08-30T12:09:52;4.97;;;2.47;;
30635;SDS011;17400;52.392;9.750;2023-08-30T12:12:30;3.60;;;2.53;;
30635;SDS011;17400;52.392;9.750;2023-08-30T12:15:00;3.53;;;2.15;;
30635;SDS011;17400;52.392;9.750;2023-08-30T12:17:29;4.30;;;2.78;;
30635;SDS011;17400;52.392;9.750;2023-08-30T12:19:57;5.20;;;3.00;;
30635;SDS011;17400;52.392;9.750;2023-08-30T12:22:34;4.50;;;2.92;;
30635;SDS011;17400;52.392;9.750;2023-08-30T12:25:04;4.90;;;3.10;;
30635;SDS011;17400;52.392;9.750;2023-08-30T12:27:43;5.53;;;2.50;;
30635;SDS011;17400;52.392;9.750;2023-08-30T12:30:12;3.75;;;2.25;;
30635;SDS011;17400;52.392;9.750;2023-08-30T12:32:41;3.72;;;1.85;;
30635;SDS011;17400;52.392;9.750;2023-08-30T12:35:08;3.85;;;2.10;;
30635;SDS011;17400;52.392;9.750;2023-08-30T12:37:36;3.40;;;2.25;;
30635;SDS011;17400;52.392;9.750;2023-08-30T12:40:05;3.28;;;2.10;;
30635;SDS011;17400;52.392;9.750;2023-08-30T12:42:33;3.42;;;2.33;;
30635;SDS011;17400;52.392;9.750;2023-08-30T12:45:01;2.00;;;1.77;;
30635;SDS011;17400;52.392;9.750;2023-08-30T12:47:31;2.85;;;1.98;;
30635;SDS011;17400;52.392;9.750;2023-08-30T12:49:59;2.70;;;1.45;;
30635;SDS011;17400;52.392;9.750;2023-08-30T12:52:27;2.85;;;1.90;;
30635;SDS011;17400;52.392;9.750;2023-08-30T12:54:55;3.40;;;2.13;;
30635;SDS011;17400;52.392;9.750;2023-08-30T12:57:23;2.63;;;1.92;;
30635;SDS011;17400;52.392;9.750;2023-08-30T12:59:51;2.95;;;1.98;;
30635;SDS011;17400;52.392;9.750;2023-08-30T13:02:18;3.28;;;2.30;;
30635;SDS011;17400;52.392;9.750;2023-08-30T13:04:47;3.38;;;2.33;;
30635;SDS011;17400;52.392;9.750;2023-08-30T13:07:15;3.30;;;2.03;;
30635;SDS011;17400;52.392;9.750;2023-08-30T13:09:44;4.30;;;2.97;;
30635;SDS011;17400;52.392;9.750;2023-08-30T13:12:12;3.88;;;2.45;;
30635;SDS011;17400;52.392;9.750;2023-08-30T13:14:39;3.35;;;2.88;;
30635;SDS011;17400;52.392;9.750;2023-08-30T13:17:07;5.20;;;3.13;;
30635;SDS011;17400;52.392;9.750;2023-08-30T13:19:35;5.50;;;2.75;;
30635;SDS011;17400;52.392;9.750;2023-08-30T13:22:04;6.03;;;2.80;;
30635;SDS011;17400;52.392;9.750;2023-08-30T13:24:32;4.18;;;2.50;;
30635;SDS011;17400;52.392;9.750;2023-08-30T13:27:00;4.40;;;2.58;;
30635;SDS011;17400;52.392;9.750;2023-08-30T13:29:29;4.78;;;2.45;;
30635;SDS011;17400;52.392;9.750;2023-08-30T13:31:57;3.45;;;2.05;;
30635;SDS011;17400;52.392;9.750;2023-08-30T13:34:25;4.63;;;2.15;;
30635;SDS011;17400;52.392;9.750;2023-08-30T13:36:53;2.95;;;2.53;;
30635;SDS011;17400;52.392;9.750;2023-08-30T13:39:22;5.60;;;3.05;;
30635;SDS011;17400;52.392;9.750;2023-08-30T13:41:51;5.00;;;2.40;;
30635;SDS011;17400;52.392;9.750;2023-08-30T13:44:19;4.25;;;2.60;;
30635;SDS011;17400;52.392;9.750;2023-08-30T13:46:47;4.82;;;2.42;;
30635;SDS011;17400;52.392;9.750;2023-08-30T13:49:15;4.07;;;2.55;;
30635;SDS011;17400;52.392;9.750;2023-08-30T13:51:44;3.60;;;2.40;;
30635;SDS011;17400;52.392;9.750;2023-08-30T13:54:12;6.05;;;2.65;;
30635;SDS011;17400;52.392;9.750;2023-08-30T13:56:44;4.68;;;2.30;;
30635;SDS011;17400;52.392;9.750;2023-08-30T13:59:12;6.55;;;2.63;;
30635;SDS011;17400;52.392;9.750;2023-08-30T14:01:40;4.65;;;2.83;;
30635;SDS011;17400;52.392;9.750;2023-08-30T14:04:08;4.90;;;3.05;;
30635;SDS011;17400;52.392;9.750;2023-08-30T14:06:36;3.83;;;2.40;;
30635;SDS011;17400;52.392;9.750;2023-08-30T14:09:05;4.50;;;2.65;;
30635;SDS011;17400;52.392;9.750;2023-08-30T14:11:35;4.22;;;2.33;;
30635;SDS011;17400;52.392;9.750;2023-08-30T14:14:05;4.43;;;2.70;;
30635;SDS011;17400;52.392;9.750;2023-08-30T14:16:33;4.78;;;2.97;;
30635;SDS011;17400;52.392;9.750;2023-08-30T14:19:03;3.75;;;2.60;;
30635;SDS011;17400;52.392;9.750;2023-08-30T14:21:32;3.85;;;2.08;;
30635;SDS011;17400;52.392;9.750;2023-08-30T14:24:00;3.60;;;2.65;;
30635;SDS011;17400;52.392;9.750;2023-08-30T14:26:28;4.57;;;3.30;;
30635;SDS011;17400;52.392;9.750;2023-08-30T14:28:56;3.75;;;2.65;;
30635;SDS011;17400;52.392;9.750;2023-08-30T14:31:25;3.80;;;2.65;;
30635;SDS011;17400;52.392;9.750;2023-08-30T14:33:54;3.95;;;2.80;;
30635;SDS011;17400;52.392;9.750;2023-08-30T14:36:23;4.72;;;2.63;;
30635;SDS011;17400;52.392;9.750;2023-08-30T14:38:51;3.90;;;2.85;;
30635;SDS011;17400;52.392;9.750;2023-08-30T14:41:19;4.75;;;2.78;;
30635;SDS011;17400;52.392;9.750;2023-08-30T14:43:48;4.88;;;3.20;;
30635;SDS011;17400;52.392;9.750;2023-08-30T14:46:15;4.82;;;3.25;;
30635;SDS011;17400;52.392;9.750;2023-08-30T14:48:51;3.63;;;2.25;;
30635;SDS011;17400;52.392;9.750;2023-08-30T14:51:19;4.00;;;2.72;;
30635;SDS011;17400;52.392;9.750;2023-08-30T14:53:47;4.03;;;2.95;;
30635;SDS011;17400;52.392;9.750;2023-08-30T14:56:15;5.35;;;3.63;;
30635;SDS011;17400;52.392;9.750;2023-08-30T14:58:44;5.07;;;2.58;;